Aviation Digital Data Service (ADDS)

Output produced by METARs form (1002 UTC 19 January 2019)
found at http://www.aviationweather.gov/metar/data/
 
KVJI 190955Z AUTO 09006KT 10SM CLR 05/03 A2995 RMK AO2 T00490029
KBCB 190955Z AUTO 12004KT 10SM OVC031 03/01 A3007 RMK AO2 T00280011
KBCB 190520Z 1906/2006 00000KT P6SM OVC025 
     FM191200 VRB02KT 6SM BR OVC008 
     TEMPO 1912/1914 3SM BR OVC003 
     FM191800 12005KT 5SM -SHRA BR OVC005 
     FM192100 12007KT 3SM SHRA BR OVC004 WS020/17035KT 
     FM200200 15005KT 4SM -SHRA BR OVC006
       
KBKT 190955Z AUTO 00000KT 10SM OVC048 06/03 A3015 RMK AO1 T00550028
K0V4 190955Z AUTO 04004KT 5SM SCT004 OVC044 02/02 A3012 RMK AO1 T00210020
KCHO 190953Z AUTO 00000KT 2 1/2SM BR OVC021 02/01 A3015 RMK AO2 SLP211 T00220011
KCHO 190539Z 1906/2006 34003KT 1SM BR SCT002 OVC045 
     FM190900 07004KT 2SM BR OVC015 
     FM191500 06004KT 3SM -FZRASNPL OVC008 
     FM191800 08005KT 1 1/2SM -FZRA OVC008
       
KCXE 190955Z AUTO 11003KT 10SM OVC044 06/06 A3013 RMK AO1 T00620055
KW63 190955Z AUTO 11005KT 10SM OVC046 06/04 A3012 RMK AO1
KW81 190955Z AUTO 00000KT 10SM OVC048 05/04 A3015 RMK AO1 T00470040
KCJR 190955Z AUTO 00000KT 2SM BR OVC039 01/00 A3018 RMK AO2 T00100002
KDAN 190953Z AUTO 05004KT 10SM OVC048 05/02 A3010 RMK AO2 SLP189 T00500022
KDAN 190520Z 1906/2006 00000KT P6SM OVC045 
     FM191100 08005KT P6SM OVC020 
     FM191600 08005KT 6SM -SHRA BR OVC009 
     FM192200 15008KT 3SM -SHRA BR OVC003 
     FM200100 18009KT 4SM -SHRA BR OVC012
       
KPSK 190955Z AUTO 12008KT 10SM OVC020 04/02 A3005 RMK AO2 T00400021
KEMV 190953Z AUTO 00000KT OVC049 06/03 A3017 RMK AO2
KFVX 190950Z AUTO 03005KT 7SM OVC047 03/03 A3014 RMK AO2 T00310025
KFKN 190955Z AUTO 08005KT 10SM OVC050 05/04 A3016 RMK AO2 T00500042
KEZF 190955Z AUTO 00000KT 5SM BR OVC050 02/02 A3019 RMK AO2 T00200020
KFRR 190955Z AUTO 10SM OVC025 02/00 A3013 RMK AO1
KHLX 190955Z AUTO 14007KT 10SM OVC014 03/02 A3002 RMK AO2 T00250020
KHSP 190955Z AUTO 00000KT 7SM BKN004 OVC011 M01/M01 A2999 RMK AO2 T10081008
KW31 190955Z AUTO 00000KT 10SM OVC046 06/03 A3013 RMK AO1 T00550030
KLVL 190955Z AUTO 10SM OVC049 06/03 A3014 RMK AO1 T00600025
KJYO 190955Z AUTO 00000KT 10SM SCT037 OVC045 01/01 A3018 RMK AO2
KLKU 190955Z AUTO 00000KT 2SM BR BKN001 OVC039 01/01 A3021 RMK AO2 T00090009
KLUA 190955Z AUTO 00000KT 10SM OVC023 02/00 A3012 RMK AO2
KLYH 190954Z AUTO 02005KT 5SM BR OVC003 02/02 A3012 RMK AO2 SLP201 T00220017
KLYH 190922Z 1909/2006 02009KT 2SM BR OVC002 
     TEMPO 1909/1912 OVC008 
     FM191700 07006KT 4SM BR OVC004 
     FM192100 07009KT 3SM SHRA BR OVC003 
     FM200200 10010G20KT 4SM -SHRA BR OVC012
       
KHEF 190956Z AUTO 00000KT 3SM BR BKN042 OVC049 00/00 A3019 RMK AO2 SLP235 T00000000 PNO $
KMKJ 190955Z AUTO 10006KT 10SM OVC019 07/05 A3002 RMK AO2 T00680047
KMTV 190955Z AUTO 00000KT 10SM OVC031 04/03 A3012 RMK AO2 T00360030
KMFV 190955Z AUTO 08005KT 5SM BR OVC049 03/02 A3018 RMK AO2 T00260022
KCPK 190955Z AUTO 00000KT 10SM OVC050 05/04 A3017 RMK AO2 T00520035
KPVG 190956Z AUTO 00000KT 10SM OVC050 05/03 A3017 RMK AO2 SLP219 T00500028 PNO $
KORF 190951Z 08007KT 10SM OVC049 07/04 A3016 RMK AO2 SLP213 T00670044
KORF 190533Z 1906/2006 04006KT P6SM OVC050 
     FM192000 13011KT P6SM BKN025 
     FM192300 15014G24KT P6SM OVC020 WS020/19040KT
       
KOMH 190955Z AUTO 00000KT 2 1/2SM BR OVC038 00/00 A3017 RMK AO2
KPTB 190955Z AUTO 07004KT 10SM OVC048 05/02 A3016 RMK AO2 T00530018
KW96 190955Z AUTO 00000KT 10SM OVC050 04/03 A3017 RMK AO1 T00360032
KJFZ 190955Z AUTO 14009G15KT 10SM CLR 04/02 A2993 RMK AO2 T00400015
KFCI 190956Z AUTO 08003KT 10SM OVC049 05/02 A3016 RMK AO2 SLP233 T00500022
KOFP 190954Z AUTO 03003KT 7SM OVC048 03/02 A3019 RMK AO2 SLP223 T00330017
KRIC 190954Z 06004KT 10SM OVC049 04/02 A3017 RMK AO2 SLP222 T00440022
KRIC 190533Z 1906/2006 06005KT P6SM OVC050 
     FM191100 10005KT P6SM OVC025 
     FM191400 11005KT P6SM OVC050 
     FM191900 12005KT P6SM -SHRA OVC020 
     FM192300 14011KT P6SM -RA OVC008 WS020/19040KT
       
KROA 190954Z 17008KT 10SM OVC041 04/01 A3011 RMK AO2 SLP200 T00390006
KROA 190922Z 1909/2006 15003KT P6SM OVC040 
     FM191600 10004KT 4SM BR OVC005 
     FM192000 11005KT 3SM SHRA BR OVC007
       
KW78 190955Z AUTO 00000KT 10SM OVC047 05/04 A3012 RMK AO1 T00500035
KAVC 190955Z AUTO 00000KT 10SM OVC048 06/04 A3019 RMK AO2 T00600036
KRMN 190955Z AUTO 00000KT 3SM BR OVC050 01/01 A3023 RMK AO2 T00110011
KSHD 190955Z AUTO 00000KT 10SM OVC021 01/00 A3013 RMK AO2 T00111001
KSFQ 190955Z AUTO 00000KT 10SM OVC049 06/04 A3017 RMK AO2 T00600035
KTGI 190953Z AUTO 08005KT 7SM OVC049 04/03 A3018 RMK AO1
KXSA 190955Z AUTO 00000KT 7SM OVC050 02/02 A3020 RMK AO2 T00220020
KAKQ 190954Z AUTO 00000KT 10SM OVC050 06/03 A3015 RMK AO2 SLP211 T00560028
KHWY 190955Z AUTO 00000KT 2SM BR OVC041 01/00 A3017 RMK AO2 T00101001
KDCA 190952Z 07003KT 10SM OVC050 04/01 A3020 RMK AO2 SLP225 T00390006
KDCA 190829Z 1908/2012 VRB03KT P6SM OVC050 
     FM191200 06004KT P6SM BKN035 
     FM191800 09006KT 1 1/2SM -RASNPL OVC008 
     FM200000 11009KT 1SM -RA OVC008 
     FM200500 16005KT 1SM -RA OVC008 WS020/19035KT
       
KIAD 190952Z 00000KT 2 1/2SM BR BKN040 OVC048 01/01 A3017 RMK AO2 SLP220 T00060006
KIAD 190829Z 1908/2012 VRB03KT 2SM BR SCT002 OVC045 
     FM191700 10006KT P6SM OVC008 
     FM191900 10007KT 1 1/2SM -SNRAPL OVC003 
     FM192100 11008KT 1/2SM -FZRA OVC003 
     FM200000 11008KT 1SM -FZRA OVC008 
     FM200300 11005KT 1SM -RA OVC008
       
KFYJ 190950Z AUTO 00000KT 7SM OVC050 04/03 A3019 RMK AO1 T00350032
KJGG 190955Z AUTO 00000KT 10SM OVC050 06/04 A3017 RMK AO1
KOKV 190955Z AUTO 00000KT 10SM OVC031 00/M01 A3016 RMK AO2
KLNP 190955Z AUTO 17010G17KT 10SM CLR 06/06 A2991 RMK AO2